FBSP

Selebi Phikwe Airport

Botswana
METAR FBSP 170700Z 03004KT CAVOK 27/15 Q1019
Observed Flight Rules
Dec-17 @ 07:00 UTC (an hour ago) Visual Flight Rules
Wind Visibility Clouds
30° at 4 knots 10,000+ meters
  • Clear skies
Temperatures Readings
Current 27°C / 81°F
Dewpoint 15°C / 59°F
Humidity 48%
Altimeter 30.09" Hg
Pressure 1019 hPa
Elevation 892
METAR FBSP 170700Z 03004KT CAVOK 27/15 Q1019
Observed Flight Rules
Dec-17 @ 07:00 UTC
(an hour ago)
VFR
Wind Visibility
30° at 4 knots 10,000+ meters
Clouds
  • Clear skies
Temperature Dewpoint
27°C / 81°F 15°C / 59°F
Humidity Altimeter Pressure
48% 30.09" Hg 1019 hPa